Leo Alonso

Olheiro - Valencia
25 Nov 2027
Quinta-feira
Processo

Personalidade

Adaptabilidade (17) Ambição (15) Controvérsia (11) Lealdade (4) Pressão (15) Profissionalismo (8) Espírito Esportivo (19) Temperamento (18)

Perfil

Estilo de Treinamento Democrático
Licença Continental B
Determinação 12
Gestão de Pessoas 15
Motivação 6
Disciplina 15
Satisfação no Trabalho
100%
Fadiga
0%
Função Olheiro
Salário 116.4K p/s
Contrato 14.03.2028

Desempenho

Comportamento Bom
Eficácia do Treinamento
40%
Desenvolvimento do Jogador
50%
Prevenção de Lesões
70%
Implementação Tática
50%

Eventos Recentes

Participou de uma reunião de recrutamento agora
Participou de uma reunião de recrutamento agora
Participou de uma reunião de recrutamento 7d atrás
Participou de uma reunião de recrutamento 7d atrás
Recomendou um alvo de transferência 7d atrás
Observou uma partida 7d atrás
Observou uma partida 7d atrás
Observou uma partida 7d atrás

Monitorando agora

110
Jogador Clube Status Habilidade Confiança Observado Última observação Último voto
Jon Ander Olasagasti Levante Ativo 126 / 132 65% 1 14.06.2027 Aprovar
João Simões Sporting CP Ativo 134 / 144 40% 2 31.05.2027 -
Jan Bürger Gillingham Ativo 113 / 124 40% 1 31.05.2027 -
Adrien Truffert Bournemouth Ativo 156 / 152 40% 5 30.05.2027 -
Flavien-Enzo Boyomo Osasuna Ativo 155 / 145 40% 3 30.05.2027 -
Conor Gallagher Tottenham Ativo 146 / 154 40% 2 30.05.2027 -
José Ángel Carmona Sevilla Ativo 140 / 141 40% 7 29.05.2027 -
Pedri Barcelona Ativo 184 / 185 40% 5 29.05.2027 -
Hector Ramirez Newcastle United Ativo 153 / 150 40% 9 29.05.2027 -
Andrés Martín Racing Santander Ativo 133 / 133 40% 4 28.05.2027 -
Mikkel Damsgaard Brentford Ativo 142 / 151 40% 1 28.05.2027 -
Jacob Ramsey Newcastle United Ativo 151 / 146 40% 1 27.05.2027 -
Jonathan Dubasin Osasuna Ativo 145 / 145 40% 1 27.05.2027 -
Othmane Maamma Watford Ativo 130 / 133 40% 1 27.05.2027 -
Jorrel Hato Chelsea Ativo 146 / 157 40% 4 26.05.2027 -
Gaspar Gijón Ativo 147 / 137 40% 3 26.05.2027 -
Pablo Torre Mallorca Ativo 153 / 142 40% 3 26.05.2027 -
David Larrubia Málaga Ativo 139 / 131 40% 1 26.05.2027 -
Kevin Fulham Ativo 147 / 149 40% 1 25.05.2027 -
Warren Zaïre-Emery Paris Saint-Germain Ativo 164 / 168 40% 3 24.05.2027 -
Ibrahim Maza Bayer Leverkusen Ativo 144 / 149 40% 2 24.05.2027 -
Daniel Kelly Oxford United Ativo 113 / 114 40% 1 24.05.2027 -
Yussif Saidu Zaragoza Ativo 122 / 130 40% 3 21.05.2027 -
Kevin Vazquez Cruz Azul Ativo 137 / 149 40% 2 21.05.2027 -
William Saliba Arsenal Ativo 177 / 169 40% 4 18.05.2027 -
Sergio Gómez Real Sociedad Ativo 138 / 138 40% 1 18.05.2027 -
Miloš Kerkez Liverpool Ativo 154 / 160 40% 1 18.05.2027 -
Gavi Barcelona Ativo 163 / 158 40% 9 17.05.2027 -
Adam Wharton Crystal Palace Ativo 148 / 156 40% 4 16.05.2027 -
Sven Botman Newcastle United Ativo 159 / 156 40% 2 16.05.2027 -
Wesley Fofana Chelsea Ativo 169 / 160 40% 6 16.05.2027 -
Kang-In Lee Atlético Madrid Ativo 152 / 156 40% 5 15.05.2027 -
David Valencia Alianza Petrolera Negociando 131 / 137 40% 1 14.05.2027 -
Giacomo Raspadori Atalanta Ativo 143 / 142 40% 3 12.05.2027 -
Germán Valera Elche Ativo 137 / 139 40% 1 12.05.2027 -
Mats Wieffer Brighton Ativo 148 / 153 40% 4 11.05.2027 -
Pablo Barrios Atlético Madrid Ativo 159 / 160 40% 3 09.05.2027 -
Jan Paul van Hecke Tottenham Ativo 154 / 155 40% 1 09.05.2027 -
Ryan Gravenberch Liverpool Ativo 168 / 158 40% 1 09.05.2027 -
Javi Rodríguez Celta Ativo 154 / 150 40% 3 07.05.2027 -
Amadou Onana Aston Villa Ativo 148 / 162 40% 1 07.05.2027 -
Omar El Hilali Espanyol Ativo 143 / 144 40% 6 06.05.2027 -
Jake O'Brien Everton Ativo 139 / 150 40% 3 06.05.2027 -
Nico González Newcastle United Ativo 167 / 164 40% 2 06.05.2027 -
Matías Gómez Granada Ativo 116 / 128 40% 3 04.05.2027 -
Dylan Lawlor Cardiff City Ativo 113 / 124 40% 3 04.05.2027 -
Sascha Britschgi Padova Ativo 114 / 128 40% 1 03.05.2027 -
Juanlu Bournemouth Ativo 146 / 149 40% 4 02.05.2027 -
Dango Ouattara Brentford Ativo 145 / 141 40% 1 01.05.2027 -
Davide Bartesaghi AC Milan Perdido 129 / 128 40% 2 30.04.2027 -
Ryan Sessegnon Fulham Ativo 146 / 141 40% 3 28.04.2027 -
Ilaix Moriba Celta Ativo 144 / 152 40% 2 28.04.2027 -
Lucas Høgsberg RC Strasbourg Ativo 134 / 143 40% 1 27.04.2027 -
Manu Koné AS Roma Ativo 171 / 168 40% 1 26.04.2027 -
Nuno Tavares Lazio Ativo 143 / 145 40% 1 26.04.2027 -
David Ozoh Derby County Ativo 128 / 122 40% 2 22.04.2027 -
Fran García Betis Ativo 143 / 149 40% 1 22.04.2027 -
Christ Inao Oulaï Fiorentina Ativo 134 / 144 40% 1 22.04.2027 -
Riley Owen Trento Ativo 104 / 114 40% 1 22.04.2027 -
Matheus Cunha Manchester United Ativo 155 / 154 40% 2 19.04.2027 -
Mohammed Kudus Tottenham Ativo 166 / 150 40% 1 19.04.2027 -
Hugo Álvarez Celta Ativo 136 / 138 40% 1 15.04.2027 -
Emi Rodriguez Leon Ativo 112 / 115 40% 2 14.04.2027 -
Ozziel Herrera Tigres Ativo 135 / 118 40% 1 14.04.2027 -
Óscar Mingueza Crystal Palace Ativo 144 / 151 40% 2 13.04.2027 -
Oihan Sancet Athletic Bilbao Ativo 170 / 152 40% 2 12.04.2027 -
Johnny Cardoso Atlético Madrid Ativo 158 / 153 40% 2 10.04.2027 -
Matthijs de Ligt Manchester United Ativo 166 / 161 40% 3 10.04.2027 -
Caleb Yirenkyi Coventry City Ativo 137 / 139 40% 1 06.04.2027 -
Jeremie Frimpong Liverpool Ativo 165 / 155 40% 1 04.04.2027 -
Ernie Weaver AFC Wimbledon Ativo 99 / 110 40% 1 03.04.2027 -
Quinten Timber Crystal Palace Ativo 142 / 156 40% 2 02.04.2027 -
João Neves Paris Saint-Germain Ativo 167 / 173 40% 1 02.04.2027 -
Tiago Santos LOSC Lille Ativo 147 / 146 40% 1 31.03.2027 -
Willian Pacho Paris Saint-Germain Ativo 159 / 164 40% 2 29.03.2027 -
Dominik Szoboszlai Liverpool Ativo 159 / 164 40% 2 29.03.2027 -
Tino Livramento Newcastle United Ativo 147 / 154 40% 1 26.03.2027 -
Gabriel Martinelli Brighton Ativo 164 / 157 40% 7 25.03.2027 -
Jofre Torrents Ajax Ativo 129 / 122 40% 1 23.03.2027 -
João Pedro Chelsea Ativo 147 / 154 40% 2 21.03.2027 -
Rodrigo Zalazar Sporting CP Ativo 145 / 148 40% 1 21.03.2027 Mais informações
Izan Merino Málaga Perdido 127 / 132 40% 1 20.03.2027 -
Anthony Gordon Barcelona Ativo 176 / 162 40% 1 19.03.2027 -
Álex Baena Atlético Madrid Ativo 166 / 166 40% 3 18.03.2027 -
Erick Sánchez OGC Nice Ativo 137 / 140 40% 1 18.03.2027 -
Borja Sainz Fiorentina Ativo 145 / 143 40% 1 17.03.2027 -
Kike Salas Sevilla Ativo 149 / 141 40% 1 16.03.2027 -
Curtis Jones Inter Ativo 164 / 151 40% 2 15.03.2027 -
Levi Colwill Chelsea Ativo 167 / 163 40% 2 15.03.2027 -
Vitinha Paris Saint-Germain Ativo 182 / 185 40% 2 14.03.2027 -
Iker Benito Queretaro Ativo 114 / 132 40% 1 13.03.2027 -
Nico O'Reilly Manchester City Ativo 149 / 153 40% 1 12.03.2027 -
Yusi Alavés Ativo 122 / 139 40% 1 12.03.2027 -
Cody Gakpo Liverpool Ativo 155 / 160 40% 1 09.03.2027 -
Jurriën Timber Arsenal Ativo 168 / 155 40% 1 09.03.2027 -
Diego Lainez Tigres Ativo 139 / 123 40% 1 04.03.2027 -
Carlos Vicente Birmingham Ativo 138 / 146 40% 1 04.03.2027 -
Bradley Barcola Liverpool Ativo 172 / 166 40% 1 01.03.2027 -
Pierre Kalulu Juventus Ativo 161 / 154 40% 1 24.02.2027 -
Matt O'Riley Brighton Ativo 150 / 141 40% 1 19.02.2027 -
Lucien Agoumé Sevilla Ativo 135 / 137 40% 1 11.02.2027 -
Alejandro Balde Barcelona Ativo 154 / 164 40% 1 11.02.2027 -
Ramiro Sordo Santos Laguna Ativo 111 / 115 40% 1 10.02.2027 -
Iliman N'Diaye Everton Ativo 160 / 164 40% 1 10.02.2027 -
Duk Atlas Ativo 109 / 113 40% 2 08.02.2027 -
Carlo Adriano Queretaro Ativo 121 / 124 40% 1 02.02.2027 -
Pol Lozano Espanyol Ativo 150 / 141 40% 1 02.02.2027 -
Antonio Blanco Alavés Ativo 135 / 146 40% 1 01.02.2027 -
Pablo Campos Levante Ativo 129 / 137 40% 1 31.12.2026 -
Mateo Mendoza Godoy Cruz Ativo 117 / 126 40% 1 02.08.2026 -